Time;durP1;ratioP1;P1;durP2;ratioP2;P2;SDS_P1;SDS_P2;PMS_P1;PMS_P2;Temp;Humidity;BMP_temperature;BMP_pressure;BME280_temperature;BME280_humidity;BME280_pressure;Samples;Min_cycle;Max_cycle;Signal;HPM_P1;HPM_P2
2022/12/06 00:01:45;;;;;;;75.55;55.90;;;14.40;62.60;;;;;;4985646;28;90634;-53
2022/12/06 00:04:13;;;;;;;75.75;55.92;;;14.40;62.60;;;;;;4980780;28;87316;-54
2022/12/06 00:06:46;;;;;;;75.45;55.85;;;14.30;62.70;;;;;;4992967;28;85860;-56
2022/12/06 00:09:23;;;;;;;76.10;55.25;;;14.30;62.60;;;;;;4995121;28;85516;-54
2022/12/06 00:11:50;;;;;;;74.72;55.45;;;14.30;62.50;;;;;;4992095;28;86049;-54
2022/12/06 00:14:17;;;;;;;76.78;55.70;;;14.30;62.60;;;;;;4977533;28;89114;-53
2022/12/06 00:16:43;;;;;;;75.63;55.25;;;14.30;62.60;;;;;;4980645;28;87458;-54
2022/12/06 00:19:13;;;;;;;73.43;55.20;;;14.30;62.70;;;;;;4972544;28;87877;-55
2022/12/06 00:21:40;;;;;;;75.25;55.05;;;14.30;62.50;;;;;;4979682;28;86324;-56
2022/12/06 00:24:11;;;;;;;76.05;55.50;;;14.30;62.70;;;;;;4980940;28;86546;-56
2022/12/06 00:26:39;;;;;;;75.82;54.97;;;14.30;62.70;;;;;;4983268;28;87277;-54
2022/12/06 00:29:05;;;;;;;74.63;55.20;;;14.20;62.60;;;;;;4987260;28;87715;-55
2022/12/06 00:31:33;;;;;;;75.70;55.53;;;14.20;62.60;;;;;;4984951;28;85714;-55
2022/12/06 00:33:59;;;;;;;75.18;55.67;;;14.20;62.60;;;;;;4978928;28;87813;-56
2022/12/06 00:36:27;;;;;;;72.57;54.85;;;14.20;62.70;;;;;;4980368;27;85671;-54
2022/12/06 00:38:53;;;;;;;73.50;55.05;;;14.20;62.60;;;;;;4980489;28;86393;-55
2022/12/06 00:41:21;;;;;;;74.53;55.13;;;14.20;62.60;;;;;;4977542;28;88157;-55
2022/12/06 00:43:47;;;;;;;76.45;55.15;;;14.20;62.60;;;;;;4990313;28;85783;-54
2022/12/06 00:46:16;;;;;;;72.53;54.47;;;14.20;62.60;;;;;;4990911;28;85350;-54
2022/12/06 00:48:46;;;;;;;72.78;53.97;;;14.20;62.50;;;;;;4990349;28;88995;-53
2022/12/06 00:51:13;;;;;;;73.57;54.90;;;14.20;62.60;;;;;;4982368;27;87011;-53
2022/12/06 00:53:38;;;;;;;75.88;54.53;;;14.20;62.50;;;;;;4979686;28;90387;-55
2022/12/06 00:56:05;;;;;;;74.10;54.78;;;14.20;62.50;;;;;;4995933;28;85945;-53
2022/12/06 00:58:31;;;;;;;73.35;54.60;;;14.20;62.60;;;;;;4991165;28;93165;-54
2022/12/06 01:01:13;;;;;;;73.75;54.30;;;14.10;62.70;;;;;;4974203;28;86313;-55
2022/12/06 01:03:39;;;;;;;72.60;54.35;;;14.10;62.60;;;;;;4979788;28;86561;-54
2022/12/06 01:06:11;;;;;;;72.78;54.28;;;14.20;62.50;;;;;;4994936;28;85854;-55
2022/12/06 01:08:38;;;;;;;74.50;54.63;;;14.10;62.50;;;;;;4998956;28;85419;-54
2022/12/06 01:11:04;;;;;;;72.10;53.85;;;14.10;62.50;;;;;;4973093;27;86122;-56
2022/12/06 01:13:30;;;;;;;72.00;54.28;;;14.10;62.60;;;;;;4997356;28;85587;-56
2022/12/06 01:15:57;;;;;;;72.40;54.67;;;14.10;62.50;;;;;;4978320;28;86059;-55
2022/12/06 01:18:23;;;;;;;73.72;54.05;;;14.10;62.40;;;;;;4992577;28;85569;-55
2022/12/06 01:20:48;;;;;;;73.88;54.78;;;14.10;62.50;;;;;;4990363;28;86282;-53
2022/12/06 01:23:14;;;;;;;72.72;54.05;;;14.10;62.50;;;;;;4976557;28;87990;-54
2022/12/06 01:25:50;;;;;;;73.13;54.35;;;14.10;62.50;;;;;;4992674;28;85399;-55
2022/12/06 01:28:16;;;;;;;72.97;54.40;;;14.10;62.50;;;;;;4994893;28;85763;-52
2022/12/06 01:30:41;;;;;;;73.63;54.60;;;14.10;62.50;;;;;;4985236;28;86579;-55
2022/12/06 01:33:07;;;;;;;71.70;54.20;;;14.00;62.50;;;;;;4992065;28;87403;-54
2022/12/06 01:35:37;;;;;;;71.68;53.88;;;14.10;62.70;;;;;;4995689;28;85163;-53
2022/12/06 01:38:03;;;;;;;71.60;53.70;;;14.10;62.50;;;;;;4976760;28;88637;-52
2022/12/06 01:40:28;;;;;;;72.57;53.28;;;14.00;62.50;;;;;;4983717;28;86358;-55
2022/12/06 01:42:54;;;;;;;72.53;53.83;;;14.00;62.50;;;;;;4988126;28;86866;-54
2022/12/06 01:47:59;;;;;;;71.47;54.05;;;14.00;62.60;;;;;;5035589;27;83173;-55
2022/12/06 01:50:29;;;;;;;71.40;53.42;;;14.00;62.50;;;;;;5025550;27;87597;-53
2022/12/06 01:53:01;;;;;;;71.03;53.08;;;14.00;62.60;;;;;;5020705;27;87588;-55
2022/12/06 01:55:30;;;;;;;72.65;53.67;;;14.00;62.60;;;;;;5014715;27;89073;-55
2022/12/06 01:57:59;;;;;;;71.82;53.28;;;14.00;62.60;;;;;;5025685;27;87124;-54
2022/12/06 02:00:25;;;;;;;72.25;53.40;;;14.00;62.40;;;;;;5018157;27;89591;-55
2022/12/06 02:02:52;;;;;;;73.15;53.45;;;14.00;62.40;;;;;;5031185;27;86823;-55
2022/12/06 02:05:19;;;;;;;70.72;52.92;;;14.00;62.60;;;;;;5021059;27;85916;-54
2022/12/06 02:07:45;;;;;;;70.88;52.28;;;14.00;62.50;;;;;;5029981;27;85898;-55
2022/12/06 02:10:12;;;;;;;70.85;53.30;;;14.00;62.60;;;;;;5027394;27;88663;-54
2022/12/06 02:12:37;;;;;;;70.95;53.30;;;13.90;62.70;;;;;;5024194;27;88003;-54
2022/12/06 02:15:04;;;;;;;71.38;52.97;;;13.90;62.60;;;;;;5027781;27;86440;-55
2022/12/06 02:17:38;;;;;;;70.65;53.15;;;13.90;62.60;;;;;;5017936;27;89899;-52
2022/12/06 02:20:25;;;;;;;71.18;52.83;;;13.90;62.60;;;;;;5025193;27;85719;-54
2022/12/06 02:23:05;;;;;;;72.10;53.17;;;13.90;62.50;;;;;;5023701;27;86163;-56
2022/12/06 02:26:02;;;;;;;71.35;52.70;;;13.90;62.50;;;;;;5016642;27;90616;-56
2022/12/06 02:29:12;;;;;;;70.00;52.92;;;13.90;62.60;;;;;;5019370;27;86875;-54
2022/12/06 02:31:55;;;;;;;70.25;52.83;;;13.90;62.60;;;;;;5016506;27;86263;-54
2022/12/06 02:34:47;;;;;;;70.68;52.72;;;13.90;62.60;;;;;;5023834;27;90142;-54
2022/12/06 02:37:37;;;;;;;71.22;52.97;;;13.80;62.70;;;;;;5021237;27;85612;-56
2022/12/06 02:40:08;;;;;;;68.78;51.53;;;13.90;62.80;;;;;;5010208;27;91481;-55
2022/12/06 02:42:55;;;;;;;68.50;52.20;;;13.90;62.80;;;;;;5019590;27;91840;-56
2022/12/06 02:45:27;;;;;;;69.40;52.53;;;13.90;62.60;;;;;;5016147;27;86966;-54
2022/12/06 02:47:56;;;;;;;71.60;53.17;;;13.90;62.50;;;;;;5018805;27;85161;-55
2022/12/06 02:50:29;;;;;;;70.63;52.80;;;13.90;62.50;;;;;;5024485;27;86897;-56
2022/12/06 02:52:58;;;;;;;70.55;52.40;;;13.90;62.60;;;;;;5022996;27;85719;-56
2022/12/06 02:55:25;;;;;;;69.28;52.88;;;13.90;62.60;;;;;;5016215;27;86220;-55
2022/12/06 02:57:53;;;;;;;69.97;52.40;;;13.90;62.50;;;;;;5021306;27;86016;-55
2022/12/06 03:00:41;;;;;;;69.68;52.10;;;13.90;62.50;;;;;;5007596;27;86489;-54
2022/12/06 03:03:10;;;;;;;70.43;52.72;;;13.90;62.50;;;;;;5005783;27;88486;-53
2022/12/06 03:05:49;;;;;;;69.18;52.13;;;13.80;62.50;;;;;;5010392;27;88074;-56
2022/12/06 03:08:28;;;;;;;69.13;51.97;;;13.80;62.40;;;;;;5005913;27;86690;-56
2022/12/06 03:10:59;;;;;;;68.95;52.00;;;13.80;62.50;;;;;;5005594;27;87292;-55
2022/12/06 03:13:45;;;;;;;69.33;52.10;;;13.80;62.50;;;;;;5005939;27;86202;-55
2022/12/06 03:16:26;;;;;;;69.38;51.72;;;13.80;62.70;;;;;;5008151;27;86008;-56
2022/12/06 03:19:03;;;;;;;68.95;52.38;;;13.80;62.70;;;;;;5013112;27;88522;-54
2022/12/06 03:21:38;;;;;;;68.25;51.88;;;13.80;62.60;;;;;;5005769;27;87549;-54
2022/12/06 03:24:08;;;;;;;69.35;52.20;;;13.80;62.60;;;;;;5006552;27;86361;-55
2022/12/06 03:26:35;;;;;;;69.22;52.40;;;13.80;62.70;;;;;;5002602;27;85809;-55
2022/12/06 03:29:04;;;;;;;69.63;52.25;;;13.80;62.70;;;;;;5004663;27;91220;-55
2022/12/06 03:31:32;;;;;;;68.03;51.55;;;13.80;62.70;;;;;;5012217;27;85719;-55
2022/12/06 03:34:05;;;;;;;68.45;51.72;;;13.80;62.70;;;;;;5005888;27;86255;-56
2022/12/06 03:36:31;;;;;;;68.63;52.25;;;13.80;62.60;;;;;;5009594;28;85562;-57
2022/12/06 03:39:03;;;;;;;68.55;51.60;;;13.80;62.50;;;;;;4999232;27;86967;-55
2022/12/06 03:41:36;;;;;;;70.03;52.50;;;13.80;62.40;;;;;;5000681;27;87453;-56
2022/12/06 03:44:01;;;;;;;68.55;52.10;;;13.80;63.10;;;;;;5006850;27;86191;-57
2022/12/06 03:46:33;;;;;;;68.45;51.67;;;13.70;62.60;;;;;;4996558;27;89359;-56
2022/12/06 03:49:04;;;;;;;69.45;52.35;;;13.70;62.60;;;;;;5007514;27;85561;-54
2022/12/06 03:51:32;;;;;;;68.13;51.58;;;13.70;62.50;;;;;;5002425;27;86225;-56
2022/12/06 03:54:01;;;;;;;68.57;51.85;;;13.70;62.60;;;;;;5002774;27;87173;-53
2022/12/06 03:56:29;;;;;;;69.68;51.72;;;13.70;62.60;;;;;;5002721;27;88258;-54
2022/12/06 03:58:55;;;;;;;68.82;51.47;;;13.70;62.70;;;;;;5006147;27;86372;-56
2022/12/06 04:01:20;;;;;;;68.63;52.15;;;13.70;62.80;;;;;;5005186;27;86026;-56
2022/12/06 04:03:46;;;;;;;67.20;51.38;;;13.70;62.70;;;;;;5010945;27;86925;-54
2022/12/06 04:06:12;;;;;;;67.63;51.55;;;13.70;62.80;;;;;;5005129;27;87820;-54
2022/12/06 04:08:38;;;;;;;67.85;51.05;;;13.60;62.70;;;;;;4998210;27;87681;-54
2022/12/06 04:11:04;;;;;;;68.45;51.97;;;13.70;62.90;;;;;;5000691;27;85755;-57
2022/12/06 04:13:30;;;;;;;69.38;51.80;;;13.60;62.80;;;;;;5005074;27;86668;-55
2022/12/06 04:15:58;;;;;;;68.40;51.80;;;13.70;62.90;;;;;;5011818;27;86933;-55
2022/12/06 04:18:25;;;;;;;69.47;51.63;;;13.60;62.90;;;;;;5004393;27;91744;-55
2022/12/06 04:23:43;;;;;;;68.97;51.65;;;13.60;62.90;;;;;;5000586;27;85930;-56
2022/12/06 04:26:11;;;;;;;67.88;51.22;;;13.60;62.80;;;;;;5017217;27;89910;-56
2022/12/06 04:39:34;;;;;;;69.57;51.20;;;13.50;63.00;;;;;;5000551;27;85285;-55
2022/12/06 04:44:45;;;;;;;68.13;51.55;;;13.50;63.80;;;;;;5016735;27;86322;-56
2022/12/06 04:47:11;;;;;;;67.35;51.08;;;13.50;63.00;;;;;;5009712;27;85246;-55
2022/12/06 04:49:37;;;;;;;68.85;51.38;;;13.50;63.10;;;;;;4997583;27;87225;-56
2022/12/06 04:52:04;;;;;;;68.13;51.17;;;13.50;62.90;;;;;;5017335;27;86230;-54
2022/12/06 04:54:30;;;;;;;68.25;50.97;;;13.50;63.00;;;;;;5007505;27;90770;-55
2022/12/06 04:56:57;;;;;;;66.15;50.67;;;13.50;63.10;;;;;;5009808;27;85115;-55
2022/12/06 04:59:23;;;;;;;67.35;51.35;;;13.50;63.10;;;;;;5003438;27;86063;-56
2022/12/06 05:01:49;;;;;;;68.22;51.38;;;13.40;63.10;;;;;;4997569;27;89562;-56
2022/12/06 05:04:15;;;;;;;68.85;50.55;;;13.40;63.20;;;;;;4999851;27;88204;-56
2022/12/06 05:06:40;;;;;;;70.38;51.50;;;13.40;63.50;;;;;;5012031;27;86127;-53
2022/12/06 05:09:06;;;;;;;67.53;50.92;;;13.40;63.50;;;;;;5003616;27;85388;-56
2022/12/06 05:11:32;;;;;;;68.47;51.20;;;13.40;63.40;;;;;;5015369;27;86101;-54
2022/12/06 05:13:59;;;;;;;66.63;51.13;;;13.40;63.20;;;;;;4999678;27;86898;-56
2022/12/06 05:16:24;;;;;;;71.97;50.97;;;13.50;63.30;;;;;;5003890;27;86385;-55
2022/12/06 05:18:50;;;;;;;66.85;50.53;;;13.40;63.20;;;;;;5004489;27;86245;-54
2022/12/06 05:21:18;;;;;;;67.22;51.53;;;13.40;63.20;;;;;;5012371;27;85689;-58
2022/12/06 05:23:44;;;;;;;70.20;51.85;;;13.40;63.40;;;;;;4999392;27;85952;-55
2022/12/06 05:26:13;;;;;;;67.13;50.72;;;13.40;63.40;;;;;;5007615;27;88975;-54
2022/12/06 05:28:39;;;;;;;66.30;50.88;;;13.40;63.30;;;;;;5002446;27;85402;-54
2022/12/06 05:31:05;;;;;;;68.63;51.30;;;13.40;63.30;;;;;;5010667;27;86065;-56
2022/12/06 05:33:31;;;;;;;66.40;51.03;;;13.40;63.40;;;;;;5003001;27;86350;-55
2022/12/06 05:35:57;;;;;;;68.78;51.38;;;13.40;63.30;;;;;;4997486;27;85433;-57
2022/12/06 05:38:23;;;;;;;66.22;50.83;;;13.30;63.30;;;;;;5004629;27;85532;-54
2022/12/06 05:40:49;;;;;;;67.35;51.22;;;13.30;63.50;;;;;;5000070;27;86025;-54
2022/12/06 05:43:15;;;;;;;66.97;50.80;;;13.30;63.50;;;;;;5001821;27;85366;-54
2022/12/06 05:45:41;;;;;;;66.95;51.15;;;13.30;63.40;;;;;;5007465;27;85684;-54
2022/12/06 05:48:07;;;;;;;66.55;50.67;;;13.30;63.30;;;;;;5017321;27;85768;-56
2022/12/06 05:50:34;;;;;;;67.70;51.20;;;13.30;63.40;;;;;;5008518;27;88382;-56
2022/12/06 05:53:00;;;;;;;68.45;51.25;;;13.30;63.30;;;;;;5011187;27;85966;-56
2022/12/06 05:55:27;;;;;;;66.13;50.70;;;13.30;63.20;;;;;;5008627;27;86807;-56
2022/12/06 05:57:53;;;;;;;66.97;50.53;;;13.30;63.30;;;;;;5012313;27;88676;-55
2022/12/06 06:00:19;;;;;;;66.75;50.97;;;13.30;63.30;;;;;;4998693;27;88394;-51
2022/12/06 06:02:46;;;;;;;67.82;51.05;;;13.30;63.40;;;;;;5002980;27;85555;-56
2022/12/06 06:05:11;;;;;;;67.47;50.83;;;13.30;63.50;;;;;;5004922;27;90433;-55
2022/12/06 06:07:37;;;;;;;70.22;51.22;;;13.30;63.40;;;;;;5007485;27;86967;-56
2022/12/06 06:10:05;;;;;;;68.20;50.78;;;13.30;63.70;;;;;;4993527;27;93829;-55
2022/12/06 06:12:30;;;;;;;69.95;51.00;;;13.30;63.80;;;;;;4996187;27;86430;-55
2022/12/06 06:14:56;;;;;;;72.80;51.25;;;13.30;64.20;;;;;;4996236;27;85709;-56
2022/12/06 06:17:23;;;;;;;70.65;50.97;;;13.30;64.30;;;;;;4997267;27;90082;-56
2022/12/06 06:19:48;;;;;;;73.38;51.17;;;13.20;64.80;;;;;;4993084;27;96153;-56
2022/12/06 06:22:14;;;;;;;69.40;50.95;;;13.20;65.00;;;;;;5012057;27;85309;-55
2022/12/06 06:24:41;;;;;;;74.78;52.08;;;13.20;65.00;;;;;;5007085;27;87861;-57
2022/12/06 06:27:07;;;;;;;75.30;51.30;;;13.30;65.30;;;;;;4994477;27;91324;-55
2022/12/06 06:29:33;;;;;;;70.22;51.33;;;13.30;64.90;;;;;;4993112;27;87024;-55
2022/12/06 06:31:59;;;;;;;67.95;51.33;;;13.20;64.70;;;;;;5003459;27;86021;-57
2022/12/06 06:34:25;;;;;;;70.75;51.63;;;13.20;65.00;;;;;;5004472;27;86340;-54
2022/12/06 06:36:51;;;;;;;71.15;52.30;;;13.10;65.10;;;;;;5010020;27;88597;-54
2022/12/06 06:39:17;;;;;;;74.80;53.10;;;13.00;65.30;;;;;;4997802;27;88477;-55
2022/12/06 06:41:44;;;;;;;72.65;53.15;;;13.10;65.60;;;;;;5013268;27;88349;-55
2022/12/06 06:44:09;;;;;;;76.07;53.67;;;13.10;65.90;;;;;;5009448;27;85529;-56
2022/12/06 06:46:35;;;;;;;77.65;53.78;;;13.00;66.20;;;;;;5010286;27;86194;-54
2022/12/06 06:49:01;;;;;;;76.43;53.60;;;13.00;66.60;;;;;;5014461;27;86351;-55
2022/12/06 06:51:29;;;;;;;75.43;53.00;;;13.00;66.80;;;;;;5006096;27;85866;-56
2022/12/06 06:53:54;;;;;;;74.38;53.15;;;12.90;66.90;;;;;;5002109;27;87146;-57
2022/12/06 06:56:20;;;;;;;77.15;53.47;;;12.90;67.20;;;;;;5009796;27;86457;-55
2022/12/06 06:58:45;;;;;;;73.85;52.05;;;12.90;67.40;;;;;;5012658;27;86480;-52
2022/12/06 07:01:20;;;;;;;77.50;52.50;;;13.00;67.40;;;;;;5011488;27;87374;-55
2022/12/06 07:03:46;;;;;;;74.50;52.45;;;13.00;67.20;;;;;;5003746;27;85654;-54
2022/12/06 07:06:11;;;;;;;71.90;52.65;;;12.90;67.30;;;;;;5012764;27;85336;-56
2022/12/06 07:08:39;;;;;;;77.07;52.85;;;12.90;67.70;;;;;;5015570;27;86006;-55
2022/12/06 07:11:04;;;;;;;76.97;53.28;;;12.90;67.70;;;;;;4997573;27;87298;-54
2022/12/06 07:13:30;;;;;;;77.28;52.75;;;12.90;67.60;;;;;;5008991;27;86718;-55
2022/12/06 07:15:57;;;;;;;75.45;52.70;;;12.80;67.60;;;;;;5022995;27;85562;-53
2022/12/06 07:18:24;;;;;;;74.88;52.08;;;12.80;67.60;;;;;;5018122;27;86658;-57
2022/12/06 07:21:02;;;;;;;74.45;52.28;;;12.90;67.70;;;;;;5013170;27;86972;-56
2022/12/06 07:23:28;;;;;;;72.40;52.35;;;12.80;67.60;;;;;;5002502;27;89803;-56
2022/12/06 07:26:09;;;;;;;75.07;52.92;;;12.80;67.60;;;;;;5010580;27;89139;-55
2022/12/06 07:28:36;;;;;;;71.72;52.40;;;12.80;67.60;;;;;;5017986;27;89301;-54
2022/12/06 07:31:14;;;;;;;71.32;52.28;;;12.80;67.60;;;;;;5013247;27;86312;-53
2022/12/06 07:33:41;;;;;;;73.80;52.65;;;12.80;67.70;;;;;;5004766;27;87617;-54
2022/12/06 07:36:08;;;;;;;73.30;52.20;;;12.80;67.50;;;;;;5005548;27;85679;-57
2022/12/06 07:38:33;;;;;;;74.60;52.75;;;12.80;67.50;;;;;;5007146;27;88764;-54
2022/12/06 07:44:59;;;;;;;73.82;52.25;;;12.80;67.50;;;;;;5016031;27;85953;-54
2022/12/06 07:46:39;;;;;;;68.88;51.83;;;12.80;67.60;;;;;;5006650;27;86085;-56
2022/12/06 07:49:05;;;;;;;70.30;52.40;;;12.80;67.40;;;;;;5012308;27;88762;-54
2022/12/06 07:51:31;;;;;;;73.22;52.00;;;12.80;67.40;;;;;;5003447;27;86027;-53
2022/12/06 07:53:57;;;;;;;71.35;52.15;;;12.80;67.40;;;;;;5016529;27;85531;-55
2022/12/06 07:56:23;;;;;;;69.53;51.92;;;12.80;67.30;;;;;;5006325;27;88202;-55
2022/12/06 07:58:49;;;;;;;69.72;51.97;;;12.80;67.20;;;;;;5006371;27;90506;-56
2022/12/06 08:01:15;;;;;;;72.68;52.05;;;12.80;67.30;;;;;;5013122;27;87558;-55
2022/12/06 08:03:40;;;;;;;71.13;51.97;;;12.80;67.10;;;;;;5010955;27;89466;-54
2022/12/06 08:06:07;;;;;;;69.55;51.70;;;12.80;67.00;;;;;;5002948;27;85299;-56
2022/12/06 08:08:33;;;;;;;72.25;52.15;;;12.80;66.90;;;;;;5011651;27;85418;-55
2022/12/06 08:11:05;;;;;;;70.22;51.78;;;12.70;67.10;;;;;;5005713;27;87645;-55
2022/12/06 08:13:31;;;;;;;70.30;51.88;;;12.70;67.20;;;;;;5006240;27;87202;-54
2022/12/06 08:15:57;;;;;;;69.05;51.45;;;12.70;67.20;;;;;;5018363;27;89105;-55
2022/12/06 08:18:24;;;;;;;70.78;51.67;;;12.70;67.10;;;;;;5008870;27;85168;-52
2022/12/06 08:20:51;;;;;;;68.30;51.85;;;12.70;66.90;;;;;;5015297;27;86074;-54
2022/12/06 08:23:17;;;;;;;67.65;51.40;;;12.70;66.80;;;;;;5009344;27;86903;-56
2022/12/06 08:25:43;;;;;;;70.90;51.83;;;12.80;66.80;;;;;;5010485;27;85928;-53
2022/12/06 08:28:09;;;;;;;71.07;51.33;;;12.80;66.80;;;;;;5006948;27;85782;-53
2022/12/06 08:30:38;;;;;;;71.07;51.17;;;12.80;66.80;;;;;;5014730;27;87539;-54
2022/12/06 08:33:04;;;;;;;69.70;51.38;;;12.70;66.80;;;;;;4997951;27;89023;-54
2022/12/06 08:35:29;;;;;;;70.18;51.25;;;12.70;66.60;;;;;;5000366;27;87471;-54
2022/12/06 08:37:55;;;;;;;69.72;50.97;;;12.70;66.60;;;;;;5013691;27;86108;-54
2022/12/06 08:40:21;;;;;;;66.30;50.83;;;12.70;66.60;;;;;;5006846;27;90296;-53
2022/12/06 08:42:46;;;;;;;68.32;51.13;;;12.70;66.60;;;;;;5009556;27;85731;-56
2022/12/06 08:45:12;;;;;;;68.35;51.00;;;12.70;66.50;;;;;;5004277;27;86082;-55
2022/12/06 08:47:37;;;;;;;69.15;51.47;;;12.70;66.50;;;;;;5013376;27;86330;-57
2022/12/06 08:50:05;;;;;;;69.00;51.63;;;12.80;66.50;;;;;;5010227;27;87922;-54
2022/12/06 08:52:30;;;;;;;69.20;51.20;;;12.80;66.40;;;;;;5004155;27;86388;-55
2022/12/06 08:54:56;;;;;;;65.95;50.42;;;12.80;66.50;;;;;;5000523;27;87405;-54
2022/12/06 08:57:22;;;;;;;70.90;51.67;;;12.80;66.20;;;;;;5007414;27;85316;-54
2022/12/06 08:59:47;;;;;;;74.20;51.30;;;12.80;66.20;;;;;;5007232;27;90160;-55
2022/12/06 09:02:13;;;;;;;69.75;51.67;;;12.80;66.10;;;;;;5007163;27;87660;-54
2022/12/06 09:04:38;;;;;;;69.47;51.45;;;12.80;66.10;;;;;;5010313;28;89185;-54
2022/12/06 09:07:04;;;;;;;73.88;51.85;;;12.80;66.00;;;;;;5008876;27;89181;-54
2022/12/06 09:09:30;;;;;;;69.95;50.95;;;12.80;66.20;;;;;;5006079;27;86241;-54
2022/12/06 09:11:55;;;;;;;70.53;51.40;;;12.70;66.10;;;;;;5012874;27;86624;-53
2022/12/06 09:14:21;;;;;;;71.32;51.40;;;12.70;66.10;;;;;;5009882;27;85914;-56
2022/12/06 09:16:47;;;;;;;72.25;51.78;;;12.80;66.10;;;;;;5009645;27;85660;-54
2022/12/06 09:19:13;;;;;;;68.53;51.42;;;12.80;66.10;;;;;;5002412;27;90013;-55
2022/12/06 09:21:41;;;;;;;67.97;51.13;;;12.80;65.90;;;;;;5011226;27;86518;-55
2022/12/06 09:24:12;;;;;;;72.90;52.13;;;12.80;66.00;;;;;;4999042;27;86484;-55
2022/12/06 09:26:38;;;;;;;69.50;51.77;;;12.80;66.10;;;;;;4989310;27;88661;-55
2022/12/06 09:29:04;;;;;;;70.85;52.00;;;12.80;65.90;;;;;;5002246;27;87389;-55
2022/12/06 09:31:30;;;;;;;68.82;51.38;;;12.80;65.80;;;;;;5014435;27;87223;-55
2022/12/06 09:33:55;;;;;;;70.95;51.83;;;12.80;65.80;;;;;;5020950;27;85126;-54
2022/12/06 09:36:30;;;;;;;68.32;51.60;;;12.80;65.80;;;;;;5008204;28;85371;-57
2022/12/06 09:39:11;;;;;;;69.32;51.33;;;12.80;65.80;;;;;;5001829;27;88356;-54
2022/12/06 09:41:46;;;;;;;71.90;52.35;;;12.80;65.80;;;;;;4999712;27;87632;-55
2022/12/06 09:44:30;;;;;;;70.95;51.85;;;12.80;65.70;;;;;;5012654;27;86515;-54
2022/12/06 09:47:14;;;;;;;70.47;51.67;;;12.80;65.70;;;;;;5013089;27;89533;-54
2022/12/06 09:49:50;;;;;;;69.82;51.47;;;12.90;65.60;;;;;;5016854;27;86388;-55
2022/12/06 09:52:41;;;;;;;71.03;52.80;;;12.90;65.60;;;;;;5009158;27;86394;-55
2022/12/06 09:55:49;;;;;;;68.33;52.17;;;12.80;65.50;;;;;;5003216;27;85515;-55
2022/12/06 09:58:17;;;;;;;68.25;51.50;;;12.80;66.20;;;;;;4949949;28;87531;-53
2022/12/06 10:00:52;;;;;;;68.18;52.03;;;12.80;65.30;;;;;;4997452;27;86408;-55
2022/12/06 10:03:17;;;;;;;68.28;51.33;;;12.80;65.40;;;;;;5006013;27;88215;-54
2022/12/06 10:05:59;;;;;;;69.43;52.08;;;12.90;65.30;;;;;;5007603;27;87008;-54
2022/12/06 10:09:09;;;;;;;70.25;52.55;;;12.90;65.30;;;;;;5013469;27;85619;-54
2022/12/06 10:11:52;;;;;;;69.65;52.20;;;12.90;65.20;;;;;;4950719;28;85699;-53
2022/12/06 10:14:46;;;;;;;70.35;52.60;;;12.90;65.10;;;;;;4951511;28;87653;-56
2022/12/06 10:17:26;;;;;;;67.85;51.33;;;12.90;65.10;;;;;;4993363;27;86481;-53
2022/12/06 10:20:17;;;;;;;70.30;52.25;;;12.90;65.10;;;;;;5010100;27;85997;-55
2022/12/06 10:23:01;;;;;;;69.88;52.15;;;12.90;65.10;;;;;;5011317;27;85733;-54
2022/12/06 10:25:39;;;;;;;69.05;52.78;;;12.90;65.10;;;;;;5013732;27;86209;-55
2022/12/06 10:28:19;;;;;;;68.38;52.45;;;12.90;65.10;;;;;;5014222;27;87255;-55
2022/12/06 10:30:51;;;;;;;73.20;53.65;;;12.90;65.00;;;;;;5022441;27;85299;-55
2022/12/06 10:33:34;;;;;;;71.60;52.95;;;12.90;65.00;;;;;;5010710;27;86029;-53
2022/12/06 10:36:05;;;;;;;75.00;53.55;;;12.90;65.00;;;;;;5009203;27;86334;-55
2022/12/06 10:38:40;;;;;;;72.57;53.47;;;12.90;64.90;;;;;;5003753;27;86023;-55
2022/12/06 10:41:15;;;;;;;70.38;53.38;;;13.00;65.20;;;;;;5007204;27;88200;-56
2022/12/06 10:44:00;;;;;;;71.57;52.72;;;13.00;64.90;;;;;;5009560;27;87948;-54
2022/12/06 10:47:03;;;;;;;72.38;53.38;;;13.00;65.00;;;;;;5007869;27;86754;-53
2022/12/06 10:49:39;;;;;;;70.38;52.63;;;13.00;64.90;;;;;;5012062;28;91445;-52
2022/12/06 10:52:17;;;;;;;71.32;52.92;;;13.00;65.00;;;;;;5008382;27;88897;-55
2022/12/06 10:55:08;;;;;;;71.65;52.40;;;13.00;65.00;;;;;;5003193;27;87524;-57
2022/12/06 10:57:43;;;;;;;72.97;52.97;;;13.00;65.00;;;;;;5015449;27;85431;-55
2022/12/06 11:00:19;;;;;;;73.25;52.78;;;13.00;64.80;;;;;;5007551;27;87396;-54
2022/12/06 11:03:10;;;;;;;71.65;52.72;;;13.00;64.90;;;;;;5010236;27;85571;-54
2022/12/06 11:05:55;;;;;;;73.77;53.30;;;13.00;64.80;;;;;;5015453;27;85672;-55
2022/12/06 11:08:49;;;;;;;72.13;52.95;;;13.00;64.70;;;;;;5008517;27;85258;-53
2022/12/06 11:11:22;;;;;;;71.78;52.97;;;13.00;64.70;;;;;;4998749;27;87630;-54
2022/12/06 11:13:53;;;;;;;71.25;52.40;;;13.00;64.70;;;;;;5003894;28;85953;-56
2022/12/06 11:16:47;;;;;;;69.63;53.00;;;13.00;64.90;;;;;;5006913;27;89045;-51
2022/12/06 11:19:34;;;;;;;71.43;52.83;;;13.00;64.80;;;;;;5004260;27;86776;-55
2022/12/06 11:22:07;;;;;;;70.78;52.88;;;13.00;64.90;;;;;;5011983;27;91825;-54
2022/12/06 11:24:46;;;;;;;70.57;52.28;;;13.00;65.00;;;;;;5018205;27;85966;-54
2022/12/06 11:27:33;;;;;;;68.82;52.13;;;13.00;65.00;;;;;;5011407;27;85553;-56
2022/12/06 11:30:11;;;;;;;74.55;52.45;;;13.00;64.90;;;;;;5014489;27;87296;-54
2022/12/06 11:32:36;;;;;;;75.80;53.00;;;13.00;64.90;;;;;;5008376;27;89656;-55
2022/12/06 11:35:03;;;;;;;70.72;52.50;;;13.00;65.20;;;;;;5011091;27;86273;-55
2022/12/06 11:37:32;;;;;;;71.43;52.42;;;13.00;65.90;;;;;;5007404;28;89340;-52
2022/12/06 11:40:35;;;;;;;72.00;52.83;;;13.00;65.10;;;;;;5002871;27;86755;-53
2022/12/06 11:43:06;;;;;;;68.97;52.53;;;13.00;65.10;;;;;;5011200;27;88819;-54
2022/12/06 11:45:34;;;;;;;72.60;52.00;;;13.00;65.00;;;;;;5014575;27;85841;-54
2022/12/06 11:48:10;;;;;;;70.20;52.30;;;13.00;65.00;;;;;;5006049;27;90132;-55
2022/12/06 11:50:36;;;;;;;72.40;52.10;;;13.00;65.00;;;;;;5009497;27;88376;-56
2022/12/06 11:53:06;;;;;;;71.85;52.47;;;13.00;65.00;;;;;;5010922;27;85602;-55
2022/12/06 11:55:41;;;;;;;68.90;52.40;;;13.00;65.10;;;;;;5009564;27;85184;-55
2022/12/06 11:58:27;;;;;;;70.32;51.95;;;13.00;65.00;;;;;;5009789;27;87800;-55
2022/12/06 12:01:03;;;;;;;72.07;51.97;;;13.00;65.00;;;;;;5021605;27;86314;-56
2022/12/06 12:03:32;;;;;;;69.32;52.05;;;13.00;65.10;;;;;;4998523;27;85215;-59
2022/12/06 12:06:08;;;;;;;71.38;52.35;;;13.00;65.10;;;;;;5006847;27;89420;-52
2022/12/06 12:08:34;;;;;;;71.18;51.90;;;13.00;65.10;;;;;;5007261;27;85573;-53
2022/12/06 12:11:01;;;;;;;72.05;52.33;;;13.00;65.10;;;;;;5008637;27;85330;-52
2022/12/06 12:13:43;;;;;;;73.78;52.22;;;13.00;65.00;;;;;;5010743;27;85396;-54
2022/12/06 12:16:29;;;;;;;73.63;52.15;;;13.00;65.10;;;;;;5010023;27;85438;-52
2022/12/06 12:19:01;;;;;;;71.60;51.38;;;13.00;65.10;;;;;;5002047;27;85877;-54
2022/12/06 12:21:31;;;;;;;73.22;52.40;;;13.00;65.10;;;;;;5012599;27;86175;-53
2022/12/06 12:23:57;;;;;;;73.80;52.07;;;13.00;65.30;;;;;;5001765;27;87334;-56
2022/12/06 12:26:32;;;;;;;73.03;51.50;;;13.00;65.30;;;;;;5019554;27;85666;-54
2022/12/06 12:29:12;;;;;;;68.72;51.78;;;13.00;65.20;;;;;;5012587;27;90088;-52
2022/12/06 12:31:53;;;;;;;75.50;52.15;;;13.00;65.30;;;;;;5004056;27;86137;-52
2022/12/06 12:34:27;;;;;;;69.60;51.47;;;13.00;65.30;;;;;;5007672;27;85056;-55
2022/12/06 12:37:01;;;;;;;73.47;51.80;;;13.00;65.30;;;;;;5001382;27;85532;-53
2022/12/06 12:39:48;;;;;;;77.15;52.10;;;13.00;65.20;;;;;;4999020;27;85946;-53
2022/12/06 12:42:32;;;;;;;74.10;51.78;;;13.10;65.40;;;;;;5006324;27;86411;-55
2022/12/06 12:45:01;;;;;;;71.85;51.88;;;13.10;65.30;;;;;;5002658;28;86233;-53
2022/12/06 12:47:27;;;;;;;72.82;51.60;;;13.10;65.20;;;;;;5010777;27;87727;-55
2022/12/06 12:50:00;;;;;;;72.22;51.30;;;13.00;65.30;;;;;;5004614;27;88215;-55
2022/12/06 12:52:38;;;;;;;73.20;51.45;;;13.10;65.30;;;;;;5007250;27;87994;-55
2022/12/06 12:55:19;;;;;;;71.75;52.42;;;13.10;65.30;;;;;;5004918;27;86933;-55
2022/12/06 12:57:47;;;;;;;73.22;52.03;;;13.00;65.30;;;;;;5009482;27;86746;-54
2022/12/06 13:00:21;;;;;;;69.50;51.75;;;13.10;65.40;;;;;;5009672;27;86375;-56
2022/12/06 13:02:54;;;;;;;71.57;51.10;;;13.10;65.30;;;;;;5003344;27;87783;-55
2022/12/06 13:05:22;;;;;;;69.53;51.40;;;13.10;65.30;;;;;;5006512;27;86242;-56
2022/12/06 13:07:51;;;;;;;68.50;51.55;;;13.00;65.30;;;;;;5006057;27;89395;-56
2022/12/06 13:10:25;;;;;;;71.90;51.22;;;13.00;65.30;;;;;;5007077;27;86740;-55